createdAt,value
2019-05-03T00:02:15.203Z,11.03
2019-05-03T00:04:46.744Z,10.60
2019-05-03T00:09:45.240Z,11.43
2019-05-03T00:12:14.908Z,13.90
2019-05-03T00:14:46.303Z,11.18
2019-05-03T00:19:44.909Z,13.20
2019-05-03T00:22:14.605Z,12.98
2019-05-03T00:24:44.350Z,12.88
2019-05-03T00:27:14.001Z,10.90
2019-05-03T00:29:43.781Z,16.40
2019-05-03T00:32:14.280Z,13.53
2019-05-03T00:34:46.572Z,11.73
2019-05-03T00:37:18.005Z,13.22
2019-05-03T00:39:55.858Z,14.55
2019-05-03T00:42:26.028Z,12.90
2019-05-03T00:44:55.978Z,15.38
2019-05-03T00:47:25.699Z,16.65
2019-05-03T00:49:55.271Z,15.85
2019-05-03T00:52:25.044Z,21.00
2019-05-03T00:54:54.698Z,19.07
2019-05-03T00:57:24.286Z,20.35
2019-05-03T00:59:53.973Z,19.40
2019-05-03T01:02:26.210Z,18.67
2019-05-03T01:04:55.083Z,20.35
2019-05-03T01:07:24.701Z,21.05
2019-05-03T01:09:54.322Z,20.90
2019-05-03T01:12:24.131Z,19.42
2019-05-03T01:14:55.527Z,16.05
2019-05-03T01:19:53.775Z,20.35
2019-05-03T01:22:23.419Z,18.55
2019-05-03T01:24:54.122Z,16.67
2019-05-03T01:27:23.737Z,19.60
2019-05-03T01:29:53.447Z,23.65
2019-05-03T01:32:23.159Z,20.35
2019-05-03T01:34:52.976Z,19.75
2019-05-03T01:37:22.778Z,21.52
2019-05-03T01:39:52.765Z,21.30
2019-05-03T01:42:22.786Z,19.62
2019-05-03T01:44:52.500Z,20.92
2019-05-03T01:47:26.485Z,24.27
2019-05-03T01:50:08.380Z,21.25
2019-05-03T01:52:39.685Z,22.37
2019-05-03T01:57:38.246Z,23.15
2019-05-03T02:00:13.297Z,20.92
2019-05-03T02:02:47.250Z,22.42
2019-05-03T02:05:35.080Z,21.95
2019-05-03T02:08:04.940Z,24.80
2019-05-03T02:10:34.519Z,21.60
2019-05-03T02:13:04.712Z,23.73
2019-05-03T02:15:34.453Z,27.55
2019-05-03T02:18:04.243Z,20.80
2019-05-03T02:20:33.856Z,22.75
2019-05-03T02:23:03.521Z,21.95
2019-05-03T02:25:33.331Z,21.30
2019-05-03T02:28:02.971Z,25.27
2019-05-03T02:30:33.376Z,21.77
2019-05-03T02:33:03.998Z,25.75
2019-05-03T02:35:34.174Z,24.92
2019-05-03T02:38:04.528Z,27.80
2019-05-03T02:40:34.304Z,24.47
2019-05-03T02:43:07.306Z,24.72
2019-05-03T02:45:56.732Z,25.92
2019-05-03T02:48:28.714Z,24.27
2019-05-03T02:53:26.954Z,24.37
2019-05-03T02:56:13.003Z,25.57
2019-05-03T02:58:27.890Z,24.23
2019-05-03T03:01:06.476Z,22.58
2019-05-03T03:03:36.566Z,25.32
2019-05-03T03:06:07.026Z,29.32
2019-05-03T03:11:08.591Z,27.15
2019-05-03T03:13:38.909Z,28.07
2019-05-03T03:16:10.187Z,29.85
2019-05-03T03:21:16.150Z,29.23
2019-05-03T03:24:06.148Z,32.67
2019-05-03T03:26:43.282Z,33.70
2019-05-03T03:29:16.151Z,32.03
2019-05-03T03:32:09.044Z,30.90
2019-05-03T03:34:55.468Z,31.15
2019-05-03T03:37:20.260Z,33.63
2019-05-03T03:39:50.445Z,33.88
2019-05-03T03:42:19.988Z,32.10
2019-05-03T03:44:51.595Z,33.90
2019-05-03T03:47:23.017Z,30.85
2019-05-03T03:52:22.108Z,31.52
2019-05-03T03:54:55.412Z,31.93
2019-05-03T03:57:27.221Z,31.80
2019-05-03T03:59:56.849Z,33.10
2019-05-03T04:02:26.701Z,30.62
2019-05-03T04:04:56.446Z,36.93
2019-05-03T04:07:26.452Z,32.95
2019-05-03T04:09:56.499Z,35.33
2019-05-03T04:12:27.042Z,36.70
2019-05-03T04:15:05.641Z,32.38
2019-05-03T04:17:56.647Z,32.05
2019-05-03T04:20:27.686Z,36.77
2019-05-03T04:22:57.385Z,36.00
2019-05-03T04:25:28.354Z,33.20
2019-05-03T04:27:58.150Z,34.43
2019-05-03T04:30:27.870Z,35.85
2019-05-03T04:32:57.580Z,34.05
2019-05-03T04:35:27.257Z,35.03
2019-05-03T04:37:56.954Z,34.15
2019-05-03T04:40:26.607Z,37.60
2019-05-03T04:42:56.225Z,35.05
2019-05-03T04:45:26.046Z,34.88
2019-05-03T04:47:58.668Z,35.98
2019-05-03T04:50:28.326Z,36.42
2019-05-03T04:52:58.032Z,36.40
2019-05-03T04:55:27.776Z,35.65
2019-05-03T04:57:57.435Z,34.85
2019-05-03T05:00:27.158Z,39.90
2019-05-03T05:02:57.008Z,36.68
2019-05-03T05:05:26.619Z,40.20
2019-05-03T05:07:56.274Z,38.23
2019-05-03T05:10:26.413Z,40.17
2019-05-03T05:12:56.074Z,42.08
2019-05-03T05:15:26.673Z,40.17
2019-05-03T05:18:05.726Z,38.73
2019-05-03T05:20:42.587Z,34.92
2019-05-03T05:23:12.170Z,38.58
2019-05-03T05:25:44.609Z,38.30
2019-05-03T05:28:16.064Z,40.65
2019-05-03T05:30:45.803Z,36.98
2019-05-03T05:33:21.228Z,38.55
2019-05-03T05:35:54.515Z,41.77
2019-05-03T05:38:25.360Z,37.38
2019-05-03T05:43:25.603Z,38.95
2019-05-03T05:45:58.645Z,39.67
2019-05-03T05:48:28.415Z,38.13
2019-05-03T05:50:58.117Z,38.40
2019-05-03T05:53:27.877Z,34.23
2019-05-03T05:55:59.278Z,39.33
2019-05-03T06:01:05.501Z,42.65
2019-05-03T06:03:35.341Z,38.60
2019-05-03T06:06:11.663Z,39.45
2019-05-03T06:08:55.270Z,34.95
2019-05-03T06:11:45.631Z,35.05
2019-05-03T06:14:19.895Z,33.30
2019-05-03T06:19:38.799Z,33.90
2019-05-03T06:24:54.392Z,33.83
2019-05-03T06:27:36.552Z,33.85
2019-05-03T06:30:09.200Z,32.58
2019-05-03T06:32:40.578Z,32.17
2019-05-03T06:37:40.641Z,33.55
2019-05-03T06:40:10.809Z,34.63
2019-05-03T06:42:51.598Z,31.77
2019-05-03T06:45:12.241Z,39.78
2019-05-03T06:47:46.008Z,36.13
2019-05-03T06:50:14.526Z,34.10
2019-05-03T06:52:44.667Z,37.17
2019-05-03T06:55:14.689Z,36.75
2019-05-03T06:57:49.547Z,36.08
2019-05-03T07:00:38.339Z,36.28
2019-05-03T07:03:12.790Z,36.80
2019-05-03T07:05:49.625Z,34.67
2019-05-03T07:08:38.701Z,37.45
2019-05-03T07:11:12.401Z,32.58
2019-05-03T07:13:42.258Z,32.63
2019-05-03T07:16:14.976Z,34.40
2019-05-03T07:18:45.486Z,35.55
2019-05-03T07:21:16.246Z,31.05
2019-05-03T07:23:45.898Z,38.38
2019-05-03T07:26:15.693Z,30.32
2019-05-03T07:28:49.311Z,35.40
2019-05-03T07:33:45.511Z,34.85
2019-05-03T07:36:15.512Z,30.72
2019-05-03T07:38:46.287Z,33.55
2019-05-03T07:41:15.981Z,33.55
2019-05-03T07:43:45.757Z,31.10
2019-05-03T07:46:15.563Z,34.78
2019-05-03T07:48:45.656Z,39.13
2019-05-03T07:51:15.425Z,37.83
2019-05-03T07:53:45.252Z,31.60
2019-05-03T07:56:15.924Z,31.10
2019-05-03T07:58:59.366Z,32.90
2019-05-03T08:01:20.232Z,31.00
2019-05-03T08:06:18.792Z,31.68
2019-05-03T08:08:48.425Z,31.17
2019-05-03T08:11:18.192Z,30.52
2019-05-03T08:13:47.890Z,31.23
2019-05-03T08:16:20.903Z,31.77
2019-05-03T08:18:50.580Z,31.80
2019-05-03T08:21:20.278Z,28.73
2019-05-03T08:23:50.288Z,26.93
2019-05-03T08:26:20.285Z,31.17
2019-05-03T08:28:50.071Z,30.95
2019-05-03T08:31:26.550Z,32.42
2019-05-03T08:34:04.842Z,28.87
2019-05-03T08:36:36.289Z,28.25
2019-05-03T08:41:37.440Z,25.85
2019-05-03T08:44:07.212Z,25.68
2019-05-03T08:46:36.920Z,25.72
2019-05-03T08:49:06.555Z,22.65
2019-05-03T08:51:36.275Z,30.02
2019-05-03T08:54:05.847Z,28.55
2019-05-03T08:56:35.643Z,26.95
2019-05-03T08:59:05.395Z,28.45
2019-05-03T09:01:36.537Z,29.05
2019-05-03T09:06:35.530Z,26.55
2019-05-03T09:09:08.707Z,27.48
2019-05-03T09:11:38.369Z,28.47
2019-05-03T09:14:15.422Z,25.05
2019-05-03T09:16:45.366Z,33.42
2019-05-03T09:19:15.111Z,25.17
2019-05-03T09:21:45.396Z,37.17
2019-05-03T09:26:45.121Z,36.08
2019-05-03T09:29:15.014Z,28.20
2019-05-03T09:31:44.939Z,29.27
2019-05-03T09:34:14.866Z,28.55
2019-05-03T09:36:44.912Z,25.05
2019-05-03T09:39:14.963Z,33.67
2019-05-03T09:41:45.886Z,30.25
2019-05-03T09:44:15.517Z,29.37
2019-05-03T09:46:45.134Z,35.58
2019-05-03T09:49:16.591Z,23.67
2019-05-03T09:51:46.472Z,27.85
2019-05-03T09:54:17.965Z,31.68
2019-05-03T09:56:59.935Z,27.35
2019-05-03T09:59:30.227Z,28.15
2019-05-03T10:02:00.489Z,26.17
2019-05-03T10:04:30.265Z,28.40
2019-05-03T10:07:00.010Z,31.40
2019-05-03T10:09:35.174Z,28.75
2019-05-03T10:12:05.507Z,31.17
2019-05-03T10:14:42.292Z,28.65
2019-05-03T10:17:15.980Z,27.40
2019-05-03T10:19:45.966Z,31.42
2019-05-03T10:22:16.152Z,26.52
2019-05-03T10:24:46.048Z,29.18
2019-05-03T10:27:16.415Z,29.77
2019-05-03T10:29:47.017Z,26.68
2019-05-03T10:32:30.787Z,28.98
2019-05-03T10:35:05.727Z,30.08
2019-05-03T10:37:36.644Z,28.98
2019-05-03T10:40:08.189Z,27.93
2019-05-03T10:42:38.252Z,32.63
2019-05-03T10:45:08.616Z,30.88
2019-05-03T10:47:38.298Z,32.13
2019-05-03T10:50:08.509Z,31.90
2019-05-03T10:52:39.908Z,32.75
2019-05-03T10:55:09.726Z,33.40
2019-05-03T10:57:46.984Z,31.55
2019-05-03T11:00:42.374Z,29.07
2019-05-03T11:02:51.533Z,34.95
2019-05-03T11:07:50.012Z,29.55
2019-05-03T11:10:19.696Z,30.20
2019-05-03T11:12:49.437Z,31.42
2019-05-03T11:15:19.186Z,27.77
2019-05-03T11:17:48.946Z,28.92
2019-05-03T11:20:32.066Z,26.75
2019-05-03T11:23:02.322Z,29.95
2019-05-03T11:25:35.925Z,31.80
2019-05-03T11:28:08.292Z,28.47
2019-05-03T11:30:38.249Z,27.65
2019-05-03T11:33:09.800Z,25.40
2019-05-03T11:35:47.393Z,26.52
2019-05-03T11:38:21.968Z,24.82
2019-05-03T11:40:51.706Z,26.82
2019-05-03T11:43:24.556Z,26.23
2019-05-03T11:45:55.428Z,27.70
2019-05-03T11:48:25.576Z,24.05
2019-05-03T11:50:57.139Z,26.95
2019-05-03T11:53:27.145Z,23.62
2019-05-03T11:55:56.785Z,24.57
2019-05-03T11:58:27.301Z,23.38
2019-05-03T12:01:11.783Z,24.70
2019-05-03T12:03:31.834Z,25.85
2019-05-03T12:06:01.633Z,23.05
2019-05-03T12:08:34.628Z,28.20
2019-05-03T12:11:05.768Z,27.73
2019-05-03T12:13:35.855Z,28.27
2019-05-03T12:16:17.396Z,27.73
2019-05-03T12:18:49.134Z,26.85
2019-05-03T12:21:10.012Z,24.90
2019-05-03T12:23:40.272Z,26.37
2019-05-03T12:26:13.434Z,24.35
2019-05-03T12:28:41.987Z,22.95
2019-05-03T12:31:29.655Z,26.07
2019-05-03T12:33:46.055Z,24.23
2019-05-03T12:36:21.878Z,27.40
2019-05-03T12:38:54.636Z,23.52
2019-05-03T12:41:25.472Z,26.95
2019-05-03T12:43:55.220Z,25.55
2019-05-03T12:46:26.276Z,26.02
2019-05-03T12:48:56.120Z,22.73
2019-05-03T12:51:25.937Z,22.45
2019-05-03T12:53:58.455Z,26.93
2019-05-03T12:56:32.618Z,24.92
2019-05-03T12:59:05.742Z,23.75
2019-05-03T13:01:55.708Z,21.57
2019-05-03T13:04:35.875Z,22.45
2019-05-03T13:07:19.324Z,22.20
2019-05-03T13:09:49.169Z,25.68
2019-05-03T13:12:20.690Z,25.50
2019-05-03T13:14:50.342Z,21.55
2019-05-03T13:17:37.323Z,24.32
2019-05-03T13:20:15.540Z,22.07
2019-05-03T13:22:45.903Z,18.52
2019-05-03T13:25:16.212Z,15.50
2019-05-03T13:27:47.030Z,20.65
2019-05-03T13:30:17.590Z,21.77
2019-05-03T13:32:48.277Z,17.67
2019-05-03T13:35:18.017Z,20.17
2019-05-03T13:37:47.726Z,16.82
2019-05-03T13:40:17.462Z,16.95
2019-05-03T13:42:56.244Z,17.23
2019-05-03T13:45:19.664Z,16.37
2019-05-03T13:47:49.902Z,15.23
2019-05-03T13:50:19.747Z,16.70
2019-05-03T13:52:49.558Z,15.80
2019-05-03T13:55:19.158Z,15.58
2019-05-03T13:57:48.983Z,16.23
2019-05-03T14:00:19.236Z,18.15
2019-05-03T14:02:49.051Z,13.68
2019-05-03T14:05:18.759Z,14.28
2019-05-03T14:07:48.468Z,13.43
2019-05-03T14:10:18.367Z,12.70
2019-05-03T14:12:49.330Z,12.58
2019-05-03T14:15:19.743Z,11.03
2019-05-03T14:17:50.621Z,13.48
2019-05-03T14:20:38.330Z,11.93
2019-05-03T14:23:08.073Z,8.68
2019-05-03T14:25:37.828Z,9.00
2019-05-03T14:28:08.427Z,11.20
2019-05-03T14:30:38.369Z,9.80
2019-05-03T14:33:09.470Z,9.90
2019-05-03T14:38:08.325Z,10.03
2019-05-03T14:40:38.055Z,9.53
2019-05-03T14:43:07.871Z,8.95
2019-05-03T14:45:37.683Z,9.68
2019-05-03T14:48:07.620Z,8.68
2019-05-03T14:50:37.452Z,8.68
2019-05-03T14:53:07.128Z,8.93
2019-05-03T14:55:38.458Z,8.93
2019-05-03T14:58:27.748Z,9.80
2019-05-03T15:01:04.957Z,8.03
2019-05-03T15:03:35.088Z,10.98
2019-05-03T15:06:06.603Z,9.23
2019-05-03T15:08:36.529Z,8.93
2019-05-03T15:11:06.335Z,10.85
2019-05-03T15:13:36.175Z,10.08
2019-05-03T15:16:06.002Z,10.50
2019-05-03T15:18:35.687Z,11.33
2019-05-03T15:21:06.889Z,11.75
2019-05-03T15:23:36.609Z,6.58
2019-05-03T15:26:06.417Z,6.37
2019-05-03T15:28:36.348Z,5.20
2019-05-03T15:31:06.104Z,5.67
2019-05-03T15:33:35.904Z,3.98
2019-05-03T15:36:06.070Z,3.20
2019-05-03T15:38:35.864Z,5.12
2019-05-03T15:41:05.657Z,3.17
2019-05-03T15:43:45.525Z,4.42
2019-05-03T15:46:33.925Z,2.12
2019-05-03T15:49:05.422Z,2.60
2019-05-03T15:51:35.651Z,2.92
2019-05-03T15:54:07.810Z,4.72
2019-05-03T15:56:37.777Z,7.00
2019-05-03T15:59:07.621Z,2.33
2019-05-03T16:01:37.294Z,3.62
2019-05-03T16:04:06.903Z,3.37
2019-05-03T16:06:36.659Z,2.65
2019-05-03T16:09:09.631Z,1.50
2019-05-03T16:11:40.676Z,3.08
2019-05-03T16:14:10.575Z,4.08
2019-05-03T16:16:40.349Z,5.47
2019-05-03T16:19:10.025Z,3.47
2019-05-03T16:21:40.042Z,1.85
2019-05-03T16:24:09.878Z,2.83
2019-05-03T16:26:41.406Z,1.90
2019-05-03T16:29:15.006Z,2.22
2019-05-03T16:31:45.109Z,2.33
2019-05-03T16:34:14.813Z,1.98
2019-05-03T16:36:45.489Z,3.17
2019-05-03T16:39:15.629Z,3.65
2019-05-03T16:41:45.445Z,2.45
2019-05-03T16:44:16.571Z,4.22
2019-05-03T16:46:46.534Z,2.02
2019-05-03T16:49:16.365Z,2.22
2019-05-03T16:51:46.112Z,2.70
2019-05-03T16:54:16.514Z,3.52
2019-05-03T16:56:46.275Z,3.10
2019-05-03T16:59:17.432Z,6.12
2019-05-03T17:01:47.214Z,3.60
2019-05-03T17:04:26.880Z,6.03
2019-05-03T17:06:58.312Z,5.60
2019-05-03T17:09:46.013Z,5.12
2019-05-03T17:12:25.657Z,4.78
2019-05-03T17:14:57.012Z,6.60
2019-05-03T17:17:27.404Z,6.03
2019-05-03T17:19:57.154Z,9.45
2019-05-03T17:22:26.940Z,8.55
2019-05-03T17:24:56.759Z,5.78
2019-05-03T17:27:29.563Z,6.05
2019-05-03T17:29:59.334Z,8.43
2019-05-03T17:32:29.175Z,8.90
2019-05-03T17:34:58.925Z,7.58
2019-05-03T17:37:28.658Z,7.10
2019-05-03T17:40:21.437Z,6.80
2019-05-03T17:43:01.694Z,8.53
2019-05-03T17:45:35.077Z,9.75
2019-05-03T17:48:08.334Z,8.45
2019-05-03T17:50:38.871Z,9.95
2019-05-03T17:53:26.407Z,9.13
2019-05-03T17:55:58.940Z,11.65
2019-05-03T17:58:31.359Z,9.83
2019-05-03T18:01:10.176Z,8.33
2019-05-03T18:03:45.595Z,9.00
2019-05-03T18:06:17.043Z,9.18
2019-05-03T18:08:48.477Z,9.48
2019-05-03T18:13:55.218Z,13.53
2019-05-03T18:16:24.894Z,12.43
2019-05-03T18:18:54.814Z,15.70
2019-05-03T18:21:24.577Z,16.50
2019-05-03T18:23:54.612Z,18.48
2019-05-03T18:26:24.958Z,18.40
2019-05-03T18:28:55.305Z,28.33
2019-05-03T18:31:25.278Z,43.83
2019-05-03T18:33:55.355Z,30.37
2019-05-03T18:36:25.369Z,27.25
2019-05-03T18:38:55.409Z,24.67
2019-05-03T18:41:25.573Z,24.75
2019-05-03T18:44:02.936Z,28.52
2019-05-03T18:46:34.286Z,23.47
2019-05-03T18:51:34.442Z,22.25
2019-05-03T18:54:07.080Z,30.95
2019-05-03T18:56:35.757Z,28.98
2019-05-03T18:59:05.486Z,24.20
2019-05-03T19:01:35.212Z,26.17
2019-05-03T19:04:15.591Z,25.00
2019-05-03T19:06:45.436Z,33.58
2019-05-03T19:09:16.861Z,32.17
2019-05-03T19:12:06.690Z,32.98
2019-05-03T19:14:36.572Z,24.65
2019-05-03T19:17:15.417Z,30.35
2019-05-03T19:19:46.815Z,38.23
2019-05-03T19:24:45.634Z,23.35
2019-05-03T19:27:17.421Z,34.88
2019-05-03T19:29:47.153Z,24.92
2019-05-03T19:32:17.011Z,30.05
2019-05-03T19:34:51.047Z,24.85
2019-05-03T19:37:19.308Z,31.70
2019-05-03T19:39:49.496Z,21.00
2019-05-03T19:42:19.494Z,21.17
2019-05-03T19:44:49.282Z,29.10
2019-05-03T19:47:20.327Z,21.85
2019-05-03T19:49:50.319Z,21.02
2019-05-03T19:52:21.734Z,19.32
2019-05-03T19:57:22.038Z,13.70
2019-05-03T20:02:39.956Z,16.95
2019-05-03T20:05:15.100Z,10.43
2019-05-03T20:07:48.118Z,10.82
2019-05-03T20:10:18.224Z,9.63
2019-05-03T20:12:48.199Z,6.42
2019-05-03T20:15:17.862Z,7.97
2019-05-03T20:17:56.677Z,5.40
2019-05-03T20:20:20.670Z,8.60
2019-05-03T20:22:50.381Z,8.33
2019-05-03T20:25:20.048Z,3.98
2019-05-03T20:27:49.825Z,4.80
2019-05-03T20:30:19.952Z,3.52
2019-05-03T20:32:49.725Z,3.92
2019-05-03T20:35:19.666Z,4.20
2019-05-03T20:37:49.623Z,4.58
2019-05-03T20:40:19.461Z,8.90
2019-05-03T20:43:05.884Z,4.80
2019-05-03T20:45:37.233Z,4.53
2019-05-03T20:50:37.298Z,5.22
2019-05-03T20:53:07.046Z,5.60
2019-05-03T20:55:36.907Z,8.35
2019-05-03T20:58:08.674Z,8.25
2019-05-03T21:03:07.089Z,4.22
2019-05-03T21:05:37.421Z,6.60
2019-05-03T21:08:07.466Z,4.77
2019-05-03T21:10:37.376Z,5.12
2019-05-03T21:13:08.776Z,3.75
2019-05-03T21:15:44.483Z,5.15
2019-05-03T21:18:24.997Z,5.17
2019-05-03T21:21:12.706Z,5.08
2019-05-03T21:23:52.927Z,8.98
2019-05-03T21:26:25.708Z,8.80
2019-05-03T21:29:00.571Z,7.70
2019-05-03T21:31:30.440Z,9.55
2019-05-03T21:34:05.615Z,6.40
2019-05-03T21:36:35.511Z,9.03
2019-05-03T21:39:06.994Z,7.58
2019-05-03T21:41:38.118Z,9.50
2019-05-03T21:44:08.019Z,7.92
2019-05-03T21:46:48.509Z,9.65
2019-05-03T21:49:28.857Z,9.10
2019-05-03T21:51:58.538Z,6.97
2019-05-03T21:54:28.253Z,10.10
2019-05-03T21:56:58.079Z,9.48
2019-05-03T21:59:28.404Z,7.22
2019-05-03T22:01:59.278Z,8.20
2019-05-03T22:04:29.377Z,7.35
2019-05-03T22:06:59.100Z,9.53
2019-05-03T22:09:28.901Z,13.40
2019-05-03T22:11:58.679Z,8.08
2019-05-03T22:14:34.973Z,13.70
2019-05-03T22:17:25.342Z,10.85
2019-05-03T22:19:56.992Z,11.65
2019-05-03T22:22:45.230Z,10.15
2019-05-03T22:25:16.685Z,8.50
2019-05-03T22:30:16.562Z,10.63
2019-05-03T22:32:46.419Z,12.70
2019-05-03T22:35:16.204Z,9.08
2019-05-03T22:37:46.318Z,10.72
2019-05-03T22:40:16.123Z,12.37
2019-05-03T22:42:45.828Z,12.93
2019-05-03T22:45:15.636Z,14.07
2019-05-03T22:47:45.348Z,8.68
2019-05-03T22:50:15.266Z,12.05
2019-05-03T22:52:45.515Z,9.65
2019-05-03T22:55:15.552Z,10.48
2019-05-03T22:57:45.328Z,10.15
2019-05-03T23:00:15.873Z,12.73
2019-05-03T23:02:47.291Z,10.53
2019-05-03T23:05:19.415Z,9.10
2019-05-03T23:07:49.236Z,15.43
2019-05-03T23:10:19.010Z,17.02
2019-05-03T23:12:48.853Z,15.55
2019-05-03T23:15:18.611Z,10.80
2019-05-03T23:17:48.453Z,12.25
2019-05-03T23:20:35.194Z,11.22
2019-05-03T23:23:05.386Z,13.28
2019-05-03T23:25:35.674Z,13.33
2019-05-03T23:28:05.495Z,14.53
2019-05-03T23:30:35.343Z,19.10
2019-05-03T23:33:05.061Z,11.45
2019-05-03T23:35:34.975Z,13.70
2019-05-03T23:38:05.922Z,23.05
2019-05-03T23:40:36.865Z,14.90
2019-05-03T23:43:06.641Z,14.68
2019-05-03T23:45:36.438Z,12.73
2019-05-03T23:48:06.117Z,13.15
2019-05-03T23:50:35.831Z,13.75
2019-05-03T23:53:05.978Z,15.23
2019-05-03T23:55:37.474Z,14.50
2019-05-03T23:58:07.414Z,15.05
